sensor_id;sensor_type;location;lat;lon;timestamp;pressure;altitude;pressure_sealevel;temperature;humidity
80749;BME280;70145;53.746;9.970;2024-01-25T00:01:58;101546.28;;;5.17;59.40
80749;BME280;70145;53.746;9.970;2024-01-25T00:04:23;101571.34;;;5.14;59.73
80749;BME280;70145;53.746;9.970;2024-01-25T00:06:49;101558.44;;;5.22;59.65
80749;BME280;70145;53.746;9.970;2024-01-25T00:09:14;101553.03;;;5.24;59.32
80749;BME280;70145;53.746;9.970;2024-01-25T00:11:39;101542.81;;;5.15;60.47
80749;BME280;70145;53.746;9.970;2024-01-25T00:14:04;101552.41;;;5.19;60.76
80749;BME280;70145;53.746;9.970;2024-01-25T00:16:30;101553.03;;;5.24;60.04
80749;BME280;70145;53.746;9.970;2024-01-25T00:18:55;101549.56;;;5.22;59.70
80749;BME280;70145;53.746;9.970;2024-01-25T00:21:20;101532.28;;;5.12;60.51
80749;BME280;70145;53.746;9.970;2024-01-25T00:23:46;101555.59;;;5.08;60.89
80749;BME280;70145;53.746;9.970;2024-01-25T00:26:12;101554.03;;;5.04;60.95
80749;BME280;70145;53.746;9.970;2024-01-25T00:28:37;101551.09;;;5.09;60.87
80749;BME280;70145;53.746;9.970;2024-01-25T00:31:03;101554.47;;;4.95;61.23
80749;BME280;70145;53.746;9.970;2024-01-25T00:33:28;101555.91;;;5.02;61.73
80749;BME280;70145;53.746;9.970;2024-01-25T00:35:53;101557.69;;;5.02;61.78
80749;BME280;70145;53.746;9.970;2024-01-25T00:38:19;101556.63;;;5.06;61.67
80749;BME280;70145;53.746;9.970;2024-01-25T00:40:45;101575.63;;;5.00;61.21
80749;BME280;70145;53.746;9.970;2024-01-25T00:43:10;101563.91;;;5.02;62.02
80749;BME280;70145;53.746;9.970;2024-01-25T00:45:36;101580.47;;;5.09;61.33
80749;BME280;70145;53.746;9.970;2024-01-25T00:48:01;101577.13;;;5.05;61.82
80749;BME280;70145;53.746;9.970;2024-01-25T00:50:27;101575.09;;;4.92;62.05
80749;BME280;70145;53.746;9.970;2024-01-25T00:52:52;101570.50;;;4.95;61.77
80749;BME280;70145;53.746;9.970;2024-01-25T00:55:18;101564.78;;;5.03;61.75
80749;BME280;70145;53.746;9.970;2024-01-25T00:57:44;101579.34;;;4.96;61.84
80749;BME280;70145;53.746;9.970;2024-01-25T01:00:09;101563.19;;;4.99;61.25
80749;BME280;70145;53.746;9.970;2024-01-25T01:02:40;101569.97;;;5.06;60.81
80749;BME280;70145;53.746;9.970;2024-01-25T01:05:08;101565.72;;;5.02;61.42
80749;BME280;70145;53.746;9.970;2024-01-25T01:07:34;101571.03;;;5.02;61.15
80749;BME280;70145;53.746;9.970;2024-01-25T01:09:59;101558.31;;;4.90;61.59
80749;BME280;70145;53.746;9.970;2024-01-25T01:12:24;101575.75;;;4.97;61.79
80749;BME280;70145;53.746;9.970;2024-01-25T01:14:50;101572.34;;;4.93;61.81
80749;BME280;70145;53.746;9.970;2024-01-25T01:17:15;101571.34;;;4.96;61.68
80749;BME280;70145;53.746;9.970;2024-01-25T01:19:40;101579.75;;;4.88;61.88
80749;BME280;70145;53.746;9.970;2024-01-25T01:22:06;101583.09;;;4.92;61.51
80749;BME280;70145;53.746;9.970;2024-01-25T01:24:31;101579.16;;;4.82;61.82
80749;BME280;70145;53.746;9.970;2024-01-25T01:26:56;101596.75;;;4.86;61.28
80749;BME280;70145;53.746;9.970;2024-01-25T01:29:22;101592.13;;;4.89;61.87
80749;BME280;70145;53.746;9.970;2024-01-25T01:31:47;101597.69;;;4.85;61.32
80749;BME280;70145;53.746;9.970;2024-01-25T01:34:12;101586.88;;;4.88;61.39
80749;BME280;70145;53.746;9.970;2024-01-25T01:36:38;101611.31;;;4.79;61.53
80749;BME280;70145;53.746;9.970;2024-01-25T01:39:04;101597.97;;;4.79;61.58
80749;BME280;70145;53.746;9.970;2024-01-25T01:41:31;101609.94;;;4.89;61.11
80749;BME280;70145;53.746;9.970;2024-01-25T01:43:56;101617.47;;;4.81;61.76
80749;BME280;70145;53.746;9.970;2024-01-25T01:46:34;101613.91;;;4.80;61.99
80749;BME280;70145;53.746;9.970;2024-01-25T01:49:02;101622.13;;;4.76;62.31
80749;BME280;70145;53.746;9.970;2024-01-25T01:51:28;101631.44;;;4.86;61.99
80749;BME280;70145;53.746;9.970;2024-01-25T01:53:55;101635.94;;;4.85;61.50
80749;BME280;70145;53.746;9.970;2024-01-25T01:56:22;101634.50;;;4.78;62.15
80749;BME280;70145;53.746;9.970;2024-01-25T01:58:48;101626.63;;;4.75;62.05
80749;BME280;70145;53.746;9.970;2024-01-25T02:01:14;101626.50;;;4.78;61.91
80749;BME280;70145;53.746;9.970;2024-01-25T02:03:39;101631.66;;;4.81;62.35
80749;BME280;70145;53.746;9.970;2024-01-25T02:06:06;101643.63;;;4.73;62.13
80749;BME280;70145;53.746;9.970;2024-01-25T02:08:31;101627.19;;;4.82;62.18
80749;BME280;70145;53.746;9.970;2024-01-25T02:10:57;101635.69;;;4.71;62.68
80749;BME280;70145;53.746;9.970;2024-01-25T02:13:22;101645.31;;;4.75;62.49
80749;BME280;70145;53.746;9.970;2024-01-25T02:15:47;101647.59;;;4.83;62.24
80749;BME280;70145;53.746;9.970;2024-01-25T02:18:13;101648.53;;;4.82;62.00
80749;BME280;70145;53.746;9.970;2024-01-25T02:20:38;101649.63;;;4.78;62.22
80749;BME280;70145;53.746;9.970;2024-01-25T02:23:04;101653.25;;;4.77;62.35
80749;BME280;70145;53.746;9.970;2024-01-25T02:25:29;101658.19;;;4.84;61.98
80749;BME280;70145;53.746;9.970;2024-01-25T02:27:54;101654.16;;;4.76;62.48
80749;BME280;70145;53.746;9.970;2024-01-25T02:30:19;101668.53;;;4.73;62.25
80749;BME280;70145;53.746;9.970;2024-01-25T02:32:45;101668.38;;;4.76;62.83
80749;BME280;70145;53.746;9.970;2024-01-25T02:35:10;101669.91;;;4.82;62.33
80749;BME280;70145;53.746;9.970;2024-01-25T02:37:35;101669.13;;;4.80;62.06
80749;BME280;70145;53.746;9.970;2024-01-25T02:40:01;101673.31;;;4.85;61.87
80749;BME280;70145;53.746;9.970;2024-01-25T02:42:26;101671.47;;;4.86;62.00
80749;BME280;70145;53.746;9.970;2024-01-25T02:44:51;101671.47;;;4.86;62.20
80749;BME280;70145;53.746;9.970;2024-01-25T02:47:17;101674.97;;;4.88;61.82
80749;BME280;70145;53.746;9.970;2024-01-25T02:49:42;101685.63;;;4.88;61.92
80749;BME280;70145;53.746;9.970;2024-01-25T02:52:08;101675.91;;;4.87;61.84
80749;BME280;70145;53.746;9.970;2024-01-25T02:54:36;101674.97;;;4.88;61.54
80749;BME280;70145;53.746;9.970;2024-01-25T02:57:02;101692.75;;;4.87;61.82
80749;BME280;70145;53.746;9.970;2024-01-25T02:59:27;101690.03;;;4.89;61.94
80749;BME280;70145;53.746;9.970;2024-01-25T03:01:54;101702.47;;;4.90;61.74
80749;BME280;70145;53.746;9.970;2024-01-25T03:04:20;101702.88;;;4.81;62.31
80749;BME280;70145;53.746;9.970;2024-01-25T03:06:45;101681.78;;;4.75;62.23
80749;BME280;70145;53.746;9.970;2024-01-25T03:09:11;101691.66;;;4.73;62.84
80749;BME280;70145;53.746;9.970;2024-01-25T03:11:36;101695.94;;;4.77;62.41
80749;BME280;70145;53.746;9.970;2024-01-25T03:14:01;101699.25;;;4.82;62.90
80749;BME280;70145;53.746;9.970;2024-01-25T03:16:26;101699.25;;;4.82;62.60
80749;BME280;70145;53.746;9.970;2024-01-25T03:18:52;101700.84;;;4.86;61.92
80749;BME280;70145;53.746;9.970;2024-01-25T03:21:17;101700.44;;;4.95;61.60
80749;BME280;70145;53.746;9.970;2024-01-25T03:23:43;101700.28;;;4.98;61.56
80749;BME280;70145;53.746;9.970;2024-01-25T03:28:36;101712.41;;;4.86;62.29
80749;BME280;70145;53.746;9.970;2024-01-25T03:31:02;101716.44;;;4.95;61.54
80749;BME280;70145;53.746;9.970;2024-01-25T03:33:27;101715.88;;;4.88;61.97
80749;BME280;70145;53.746;9.970;2024-01-25T03:35:54;101719.31;;;4.90;61.39
80749;BME280;70145;53.746;9.970;2024-01-25T03:38:19;101726.41;;;4.91;61.68
80749;BME280;70145;53.746;9.970;2024-01-25T03:40:44;101729.78;;;4.95;61.58
80749;BME280;70145;53.746;9.970;2024-01-25T03:43:10;101729.84;;;4.93;61.37
80749;BME280;70145;53.746;9.970;2024-01-25T03:45:35;101729.72;;;4.96;61.82
80749;BME280;70145;53.746;9.970;2024-01-25T03:48:01;101726.81;;;4.82;61.77
80749;BME280;70145;53.746;9.970;2024-01-25T03:50:26;101732.03;;;4.85;61.50
80749;BME280;70145;53.746;9.970;2024-01-25T03:52:52;101746.75;;;4.94;61.67
80749;BME280;70145;53.746;9.970;2024-01-25T03:55:17;101746.09;;;4.89;61.99
80749;BME280;70145;53.746;9.970;2024-01-25T03:57:42;101747.28;;;4.82;61.50
80749;BME280;70145;53.746;9.970;2024-01-25T04:00:08;101769.53;;;4.82;61.96
80749;BME280;70145;53.746;9.970;2024-01-25T04:02:34;101767.72;;;4.83;61.80
80749;BME280;70145;53.746;9.970;2024-01-25T04:04:59;101776.47;;;4.86;61.92
80749;BME280;70145;53.746;9.970;2024-01-25T04:07:25;101792.97;;;4.94;61.41
80749;BME280;70145;53.746;9.970;2024-01-25T04:09:50;101790.03;;;5.00;61.73
80749;BME280;70145;53.746;9.970;2024-01-25T04:12:16;101796.25;;;5.01;60.81
80749;BME280;70145;53.746;9.970;2024-01-25T04:14:41;101797.00;;;5.04;61.31
80749;BME280;70145;53.746;9.970;2024-01-25T04:17:06;101793.13;;;5.11;60.93
80749;BME280;70145;53.746;9.970;2024-01-25T04:19:32;101801.75;;;5.16;60.58
80749;BME280;70145;53.746;9.970;2024-01-25T04:21:57;101806.19;;;5.17;60.45
80749;BME280;70145;53.746;9.970;2024-01-25T04:24:22;101811.47;;;5.19;60.75
80749;BME280;70145;53.746;9.970;2024-01-25T04:26:48;101811.06;;;5.08;61.39
80749;BME280;70145;53.746;9.970;2024-01-25T04:29:13;101804.50;;;5.15;61.30
80749;BME280;70145;53.746;9.970;2024-01-25T04:31:45;101815.38;;;5.10;60.98
80749;BME280;70145;53.746;9.970;2024-01-25T04:34:12;101810.50;;;5.01;60.97
80749;BME280;70145;53.746;9.970;2024-01-25T04:36:38;101816.47;;;5.06;60.69
80749;BME280;70145;53.746;9.970;2024-01-25T04:39:03;101809.53;;;5.02;61.21
80749;BME280;70145;53.746;9.970;2024-01-25T04:41:29;101818.56;;;5.00;61.24
80749;BME280;70145;53.746;9.970;2024-01-25T04:43:54;101822.00;;;5.02;61.58
80749;BME280;70145;53.746;9.970;2024-01-25T04:46:20;101825.38;;;4.87;61.85
80749;BME280;70145;53.746;9.970;2024-01-25T04:48:45;101819.69;;;4.94;61.41
80749;BME280;70145;53.746;9.970;2024-01-25T04:51:18;101828.44;;;4.98;61.53
80749;BME280;70145;53.746;9.970;2024-01-25T04:53:45;101833.72;;;4.99;61.88
80749;BME280;70145;53.746;9.970;2024-01-25T04:56:10;101829.31;;;4.98;61.82
80749;BME280;70145;53.746;9.970;2024-01-25T04:58:36;101825.97;;;4.93;61.63
80749;BME280;70145;53.746;9.970;2024-01-25T05:01:01;101835.03;;;4.89;61.75
80749;BME280;70145;53.746;9.970;2024-01-25T05:03:26;101834.84;;;4.94;61.57
80749;BME280;70145;53.746;9.970;2024-01-25T05:05:52;101837.38;;;4.97;61.18
80749;BME280;70145;53.746;9.970;2024-01-25T05:08:17;101844.44;;;4.98;61.30
80749;BME280;70145;53.746;9.970;2024-01-25T05:10:42;101849.53;;;4.84;61.78
80749;BME280;70145;53.746;9.970;2024-01-25T05:13:08;101856.59;;;4.85;61.93
80749;BME280;70145;53.746;9.970;2024-01-25T05:15:34;101853.81;;;4.88;61.71
80749;BME280;70145;53.746;9.970;2024-01-25T05:17:59;101852.59;;;4.95;61.65
80749;BME280;70145;53.746;9.970;2024-01-25T05:20:25;101855.72;;;4.84;61.72
80749;BME280;70145;53.746;9.970;2024-01-25T05:22:57;101869.81;;;4.88;61.92
80749;BME280;70145;53.746;9.970;2024-01-25T05:25:22;101867.09;;;4.89;62.14
80749;BME280;70145;53.746;9.970;2024-01-25T05:27:47;101877.13;;;4.83;62.34
80749;BME280;70145;53.746;9.970;2024-01-25T05:30:13;101875.28;;;4.85;62.05
80749;BME280;70145;53.746;9.970;2024-01-25T05:32:38;101878.97;;;4.82;62.33
80749;BME280;70145;53.746;9.970;2024-01-25T05:35:04;101892.19;;;4.85;62.05
80749;BME280;70145;53.746;9.970;2024-01-25T05:37:30;101895.44;;;4.92;62.22
80749;BME280;70145;53.746;9.970;2024-01-25T05:39:55;101899.78;;;4.94;61.93
80749;BME280;70145;53.746;9.970;2024-01-25T05:42:20;101897.47;;;4.87;61.89
80749;BME280;70145;53.746;9.970;2024-01-25T05:44:46;101892.75;;;4.92;62.33
80749;BME280;70145;53.746;9.970;2024-01-25T05:47:12;101899.00;;;4.92;62.43
80749;BME280;70145;53.746;9.970;2024-01-25T05:49:37;101902.31;;;4.97;61.77
80749;BME280;70145;53.746;9.970;2024-01-25T05:52:03;101907.88;;;4.93;61.62
80749;BME280;70145;53.746;9.970;2024-01-25T05:54:28;101907.72;;;4.96;61.48
80749;BME280;70145;53.746;9.970;2024-01-25T05:56:53;101908.59;;;4.96;61.84
80749;BME280;70145;53.746;9.970;2024-01-25T05:59:19;101900.53;;;4.98;61.88
80749;BME280;70145;53.746;9.970;2024-01-25T06:01:44;101904.25;;;4.94;62.32
80749;BME280;70145;53.746;9.970;2024-01-25T06:04:09;101901.72;;;4.91;61.59
80749;BME280;70145;53.746;9.970;2024-01-25T06:06:35;101900.59;;;4.96;61.73
80749;BME280;70145;53.746;9.970;2024-01-25T06:09:00;101911.00;;;5.02;61.95
80749;BME280;70145;53.746;9.970;2024-01-25T06:11:25;101908.41;;;5.01;61.51
80749;BME280;70145;53.746;9.970;2024-01-25T06:13:50;101922.63;;;5.01;61.37
80749;BME280;70145;53.746;9.970;2024-01-25T06:16:16;101914.44;;;5.06;61.34
80749;BME280;70145;53.746;9.970;2024-01-25T06:18:41;101918.00;;;5.05;61.76
80749;BME280;70145;53.746;9.970;2024-01-25T06:21:06;101923.22;;;5.08;61.69
80749;BME280;70145;53.746;9.970;2024-01-25T06:23:32;101932.16;;;5.07;61.35
80749;BME280;70145;53.746;9.970;2024-01-25T06:25:57;101935.34;;;4.95;61.43
80749;BME280;70145;53.746;9.970;2024-01-25T06:28:22;101931.41;;;5.03;61.12
80749;BME280;70145;53.746;9.970;2024-01-25T06:30:48;101934.91;;;5.05;61.75
80749;BME280;70145;53.746;9.970;2024-01-25T06:33:13;101944.69;;;5.05;61.58
80749;BME280;70145;53.746;9.970;2024-01-25T06:35:39;101945.84;;;4.99;62.09
80749;BME280;70145;53.746;9.970;2024-01-25T06:38:04;101950.72;;;4.90;61.95
80749;BME280;70145;53.746;9.970;2024-01-25T06:40:29;101951.38;;;4.95;61.59
80749;BME280;70145;53.746;9.970;2024-01-25T06:42:55;101958.38;;;4.97;61.68
80749;BME280;70145;53.746;9.970;2024-01-25T06:45:20;101968.22;;;4.97;61.50
80749;BME280;70145;53.746;9.970;2024-01-25T06:47:45;101975.16;;;5.01;62.04
80749;BME280;70145;53.746;9.970;2024-01-25T06:50:11;101976.88;;;5.02;62.06
80749;BME280;70145;53.746;9.970;2024-01-25T06:52:37;101973.53;;;4.97;62.25
80749;BME280;70145;53.746;9.970;2024-01-25T06:55:02;101964.97;;;4.89;61.77
80749;BME280;70145;53.746;9.970;2024-01-25T06:57:27;101987.03;;;4.94;62.27
80749;BME280;70145;53.746;9.970;2024-01-25T06:59:53;101975.66;;;4.89;61.89
80749;BME280;70145;53.746;9.970;2024-01-25T07:02:18;101979.97;;;4.93;62.06
80749;BME280;70145;53.746;9.970;2024-01-25T07:04:43;101979.13;;;4.91;61.74
80749;BME280;70145;53.746;9.970;2024-01-25T07:07:09;101987.16;;;4.91;62.22
80749;BME280;70145;53.746;9.970;2024-01-25T07:09:34;102000.56;;;4.89;61.90
80749;BME280;70145;53.746;9.970;2024-01-25T07:11:59;101995.97;;;4.93;62.12
80749;BME280;70145;53.746;9.970;2024-01-25T07:14:25;101996.81;;;4.93;62.02
80749;BME280;70145;53.746;9.970;2024-01-25T07:16:50;102015.44;;;4.95;61.26
80749;BME280;70145;53.746;9.970;2024-01-25T07:19:15;102018.31;;;4.90;61.47
80749;BME280;70145;53.746;9.970;2024-01-25T07:21:41;102026.00;;;4.98;60.96
80749;BME280;70145;53.746;9.970;2024-01-25T07:24:06;102043.69;;;5.00;60.90
80749;BME280;70145;53.746;9.970;2024-01-25T07:26:32;102037.44;;;5.01;61.02
80749;BME280;70145;53.746;9.970;2024-01-25T07:28:57;102043.56;;;5.03;61.25
80749;BME280;70145;53.746;9.970;2024-01-25T07:31:26;102043.75;;;4.99;61.29
80749;BME280;70145;53.746;9.970;2024-01-25T07:33:52;102046.41;;;4.99;61.16
80749;BME280;70145;53.746;9.970;2024-01-25T07:36:17;102054.56;;;4.96;61.17
80749;BME280;70145;53.746;9.970;2024-01-25T07:38:43;102052.69;;;4.98;60.81
80749;BME280;70145;53.746;9.970;2024-01-25T07:41:09;102059.16;;;4.92;61.08
80749;BME280;70145;53.746;9.970;2024-01-25T07:43:34;102058.03;;;4.98;60.83
80749;BME280;70145;53.746;9.970;2024-01-25T07:45:59;102055.38;;;4.98;61.23
80749;BME280;70145;53.746;9.970;2024-01-25T07:48:25;102060.84;;;4.95;61.20
80749;BME280;70145;53.746;9.970;2024-01-25T07:50:50;102062.38;;;5.00;61.60
80749;BME280;70145;53.746;9.970;2024-01-25T07:53:15;102062.44;;;4.99;61.76
80749;BME280;70145;53.746;9.970;2024-01-25T07:55:41;102071.31;;;4.99;61.44
80749;BME280;70145;53.746;9.970;2024-01-25T07:58:07;102080.88;;;5.05;61.08
80749;BME280;70145;53.746;9.970;2024-01-25T08:00:32;102079.22;;;5.02;61.86
80749;BME280;70145;53.746;9.970;2024-01-25T08:02:57;102081.81;;;5.04;60.81
80749;BME280;70145;53.746;9.970;2024-01-25T08:05:23;102079.16;;;5.04;61.22
80749;BME280;70145;53.746;9.970;2024-01-25T08:07:48;102084.63;;;5.01;60.97
80749;BME280;70145;53.746;9.970;2024-01-25T08:10:14;102083.69;;;5.02;61.41
80749;BME280;70145;53.746;9.970;2024-01-25T08:12:40;102091.56;;;5.05;61.20
80749;BME280;70145;53.746;9.970;2024-01-25T08:15:09;102084.50;;;5.04;61.36
80749;BME280;70145;53.746;9.970;2024-01-25T08:17:34;102084.56;;;5.02;61.43
80749;BME280;70145;53.746;9.970;2024-01-25T08:20:01;102093.38;;;5.04;61.54
80749;BME280;70145;53.746;9.970;2024-01-25T08:22:27;102092.38;;;5.07;61.61
80749;BME280;70145;53.746;9.970;2024-01-25T08:24:53;102095.19;;;5.04;61.86
80749;BME280;70145;53.746;9.970;2024-01-25T08:27:18;102097.03;;;5.02;61.42
80749;BME280;70145;53.746;9.970;2024-01-25T08:29:45;102093.69;;;4.97;61.58
80749;BME280;70145;53.746;9.970;2024-01-25T08:32:10;102089.25;;;4.96;61.67
80749;BME280;70145;53.746;9.970;2024-01-25T08:34:35;102096.41;;;4.95;61.45
80749;BME280;70145;53.746;9.970;2024-01-25T08:37:01;102099.03;;;4.97;61.69
80749;BME280;70145;53.746;9.970;2024-01-25T08:39:26;102101.69;;;4.97;61.95
80749;BME280;70145;53.746;9.970;2024-01-25T08:41:51;102100.75;;;4.98;61.93
80749;BME280;70145;53.746;9.970;2024-01-25T08:44:17;102103.31;;;5.01;61.72
80749;BME280;70145;53.746;9.970;2024-01-25T08:46:42;102103.38;;;4.99;61.79
80749;BME280;70145;53.746;9.970;2024-01-25T08:49:08;102090.38;;;4.90;62.54
80749;BME280;70145;53.746;9.970;2024-01-25T08:51:35;102092.31;;;4.87;62.40
80749;BME280;70145;53.746;9.970;2024-01-25T08:54:01;102099.63;;;4.82;63.02
80749;BME280;70145;53.746;9.970;2024-01-25T08:56:26;102098.38;;;4.90;62.47
80749;BME280;70145;53.746;9.970;2024-01-25T08:58:51;102091.94;;;4.96;62.26
80749;BME280;70145;53.746;9.970;2024-01-25T09:01:17;102091.94;;;4.96;62.52
80749;BME280;70145;53.746;9.970;2024-01-25T09:03:43;102104.59;;;4.91;62.77
80749;BME280;70145;53.746;9.970;2024-01-25T09:06:08;102104.56;;;4.92;63.24
80749;BME280;70145;53.746;9.970;2024-01-25T09:08:34;102115.91;;;4.97;62.81
80749;BME280;70145;53.746;9.970;2024-01-25T09:10:59;102110.84;;;4.91;62.70
80749;BME280;70145;53.746;9.970;2024-01-25T09:13:25;102110.84;;;4.91;63.13
80749;BME280;70145;53.746;9.970;2024-01-25T09:15:50;102110.41;;;4.79;63.22
80749;BME280;70145;53.746;9.970;2024-01-25T09:18:15;102109.88;;;4.92;63.57
80749;BME280;70145;53.746;9.970;2024-01-25T09:20:41;102107.09;;;4.95;63.10
80749;BME280;70145;53.746;9.970;2024-01-25T09:23:09;102109.59;;;5.00;62.36
80749;BME280;70145;53.746;9.970;2024-01-25T09:25:35;102113.75;;;5.07;62.99
80749;BME280;70145;53.746;9.970;2024-01-25T09:28:01;102119.88;;;5.09;62.90
80749;BME280;70145;53.746;9.970;2024-01-25T09:30:26;102125.97;;;5.12;62.68
80749;BME280;70145;53.746;9.970;2024-01-25T09:32:52;102145.50;;;5.14;62.56
80749;BME280;70145;53.746;9.970;2024-01-25T09:35:17;102145.69;;;5.10;62.84
80749;BME280;70145;53.746;9.970;2024-01-25T09:37:42;102154.34;;;5.15;62.35
80749;BME280;70145;53.746;9.970;2024-01-25T09:40:08;102158.66;;;5.19;62.45
80749;BME280;70145;53.746;9.970;2024-01-25T09:42:35;102161.53;;;5.14;62.43
80749;BME280;70145;53.746;9.970;2024-01-25T09:45:04;102165.09;;;5.13;62.95
80749;BME280;70145;53.746;9.970;2024-01-25T09:47:32;102163.84;;;5.22;62.63
80749;BME280;70145;53.746;9.970;2024-01-25T09:49:58;102174.38;;;5.26;62.54
80749;BME280;70145;53.746;9.970;2024-01-25T09:52:23;102167.09;;;5.30;62.36
80749;BME280;70145;53.746;9.970;2024-01-25T09:54:52;102172.44;;;5.30;62.27
80749;BME280;70145;53.746;9.970;2024-01-25T09:57:22;102174.25;;;5.29;62.26
80749;BME280;70145;53.746;9.970;2024-01-25T09:59:49;102174.19;;;5.31;62.73
80749;BME280;70145;53.746;9.970;2024-01-25T10:02:15;102171.44;;;5.32;62.74
80749;BME280;70145;53.746;9.970;2024-01-25T10:04:41;102180.47;;;5.30;62.74
80749;BME280;70145;53.746;9.970;2024-01-25T10:07:07;102168.66;;;5.35;62.53
80749;BME280;70145;53.746;9.970;2024-01-25T10:09:40;102181.00;;;5.38;62.43
80749;BME280;70145;53.746;9.970;2024-01-25T10:12:06;102184.06;;;5.29;63.07
80749;BME280;70145;53.746;9.970;2024-01-25T10:14:31;102192.53;;;5.40;62.51
80749;BME280;70145;53.746;9.970;2024-01-25T10:17:00;102183.13;;;5.30;62.46
80749;BME280;70145;53.746;9.970;2024-01-25T10:19:26;102191.75;;;5.36;62.64
80749;BME280;70145;53.746;9.970;2024-01-25T10:21:51;102195.06;;;5.43;62.19
80749;BME280;70145;53.746;9.970;2024-01-25T10:24:16;102194.31;;;5.39;62.71
80749;BME280;70145;53.746;9.970;2024-01-25T10:26:42;102202.03;;;5.47;62.28
80749;BME280;70145;53.746;9.970;2024-01-25T10:29:08;102205.50;;;5.49;62.80
80749;BME280;70145;53.746;9.970;2024-01-25T10:31:38;102212.59;;;5.50;62.24
80749;BME280;70145;53.746;9.970;2024-01-25T10:34:05;102209.78;;;5.53;62.23
80749;BME280;70145;53.746;9.970;2024-01-25T10:36:32;102209.72;;;5.54;62.65
80749;BME280;70145;53.746;9.970;2024-01-25T10:38:59;102215.09;;;5.54;62.37
80749;BME280;70145;53.746;9.970;2024-01-25T10:41:25;102202.34;;;5.61;62.09
80749;BME280;70145;53.746;9.970;2024-01-25T10:43:51;102208.84;;;5.54;62.70
80749;BME280;70145;53.746;9.970;2024-01-25T10:46:17;102217.50;;;5.61;62.47
80749;BME280;70145;53.746;9.970;2024-01-25T10:48:44;102212.97;;;5.63;62.11
80749;BME280;70145;53.746;9.970;2024-01-25T10:51:09;102211.00;;;5.68;62.22
80749;BME280;70145;53.746;9.970;2024-01-25T10:53:36;102206.47;;;5.70;62.31
80749;BME280;70145;53.746;9.970;2024-01-25T10:56:02;102208.28;;;5.69;62.05
80749;BME280;70145;53.746;9.970;2024-01-25T10:58:32;102209.16;;;5.70;61.74
80749;BME280;70145;53.746;9.970;2024-01-25T11:00:59;102210.13;;;5.67;61.95
80749;BME280;70145;53.746;9.970;2024-01-25T11:03:28;102209.03;;;5.73;62.12
80749;BME280;70145;53.746;9.970;2024-01-25T11:06:10;102214.50;;;5.70;62.09
80749;BME280;70145;53.746;9.970;2024-01-25T11:08:36;102211.88;;;5.68;61.82
80749;BME280;70145;53.746;9.970;2024-01-25T11:11:05;102218.78;;;5.74;61.89
80749;BME280;70145;53.746;9.970;2024-01-25T11:13:33;102215.34;;;5.70;61.59
80749;BME280;70145;53.746;9.970;2024-01-25T11:15:59;102213.38;;;5.75;61.74
80749;BME280;70145;53.746;9.970;2024-01-25T11:18:25;102217.16;;;5.70;62.41
80749;BME280;70145;53.746;9.970;2024-01-25T11:20:51;102212.66;;;5.70;62.21
80749;BME280;70145;53.746;9.970;2024-01-25T11:23:16;102217.78;;;5.76;61.88
80749;BME280;70145;53.746;9.970;2024-01-25T11:25:44;102219.56;;;5.76;62.05
80749;BME280;70145;53.746;9.970;2024-01-25T11:28:13;102215.09;;;5.76;62.39
80749;BME280;70145;53.746;9.970;2024-01-25T11:30:39;102216.81;;;5.77;62.12
80749;BME280;70145;53.746;9.970;2024-01-25T11:33:06;102209.69;;;5.78;62.29
80749;BME280;70145;53.746;9.970;2024-01-25T11:35:32;102217.66;;;5.79;62.49
80749;BME280;70145;53.746;9.970;2024-01-25T11:37:58;102206.47;;;5.70;62.71
80749;BME280;70145;53.746;9.970;2024-01-25T11:40:23;102211.41;;;5.79;62.03
80749;BME280;70145;53.746;9.970;2024-01-25T11:42:50;102213.97;;;5.82;62.13
80749;BME280;70145;53.746;9.970;2024-01-25T11:45:15;102219.31;;;5.82;62.32
80749;BME280;70145;53.746;9.970;2024-01-25T11:47:42;102216.56;;;5.83;62.07
80749;BME280;70145;53.746;9.970;2024-01-25T11:50:09;102221.06;;;5.83;62.37
80749;BME280;70145;53.746;9.970;2024-01-25T11:52:35;102218.59;;;5.78;62.56
80749;BME280;70145;53.746;9.970;2024-01-25T11:55:08;102225.66;;;5.79;62.38
80749;BME280;70145;53.746;9.970;2024-01-25T11:57:38;102216.69;;;5.80;62.24
80749;BME280;70145;53.746;9.970;2024-01-25T12:00:07;102223.69;;;5.84;62.48
80749;BME280;70145;53.746;9.970;2024-01-25T12:02:35;102219.31;;;5.82;62.33
80749;BME280;70145;53.746;9.970;2024-01-25T12:05:02;102221.81;;;5.86;62.04
80749;BME280;70145;53.746;9.970;2024-01-25T12:07:30;102214.59;;;5.88;62.38
80749;BME280;70145;53.746;9.970;2024-01-25T12:10:03;102209.25;;;5.88;62.40
80749;BME280;70145;53.746;9.970;2024-01-25T12:12:28;102210.97;;;5.89;62.20
80749;BME280;70145;53.746;9.970;2024-01-25T12:15:01;102209.84;;;5.95;62.54
80749;BME280;70145;53.746;9.970;2024-01-25T12:17:32;102216.06;;;5.95;62.38
80749;BME280;70145;53.746;9.970;2024-01-25T12:19:58;102223.03;;;5.99;62.27
80749;BME280;70145;53.746;9.970;2024-01-25T12:22:26;102213.41;;;5.95;62.13
80749;BME280;70145;53.746;9.970;2024-01-25T12:24:56;102225.81;;;5.96;62.13
80749;BME280;70145;53.746;9.970;2024-01-25T12:27:22;102223.91;;;6.00;61.77
80749;BME280;70145;53.746;9.970;2024-01-25T12:29:48;102229.13;;;6.03;62.04
80749;BME280;70145;53.746;9.970;2024-01-25T12:32:13;102224.56;;;6.05;61.86
80749;BME280;70145;53.746;9.970;2024-01-25T12:34:39;102230.78;;;6.05;61.78
80749;BME280;70145;53.746;9.970;2024-01-25T12:37:06;102225.50;;;6.04;61.95
80749;BME280;70145;53.746;9.970;2024-01-25T12:39:32;102220.22;;;6.02;61.73
80749;BME280;70145;53.746;9.970;2024-01-25T12:41:57;102228.13;;;6.05;61.20
80749;BME280;70145;53.746;9.970;2024-01-25T12:44:23;102231.09;;;5.98;61.84
80749;BME280;70145;53.746;9.970;2024-01-25T12:46:48;102226.66;;;5.98;61.92
80749;BME280;70145;53.746;9.970;2024-01-25T12:49:13;102229.31;;;5.98;61.48
80749;BME280;70145;53.746;9.970;2024-01-25T12:51:39;102228.13;;;6.05;61.48
80749;BME280;70145;53.746;9.970;2024-01-25T12:54:05;102221.22;;;6.00;61.21
80749;BME280;70145;53.746;9.970;2024-01-25T12:56:30;102229.97;;;6.03;61.26